sensor_id;sensor_type;location;lat;lon;timestamp;P1;durP1;ratioP1;P2;durP2;ratioP2
53497;SDS011;39382;47.168;16.008;2023-12-20T00:00:25;12.65;;;3.85;;
53497;SDS011;39382;47.168;16.008;2023-12-20T00:02:51;6.05;;;4.18;;
53497;SDS011;39382;47.168;16.008;2023-12-20T00:05:16;9.25;;;4.68;;
53497;SDS011;39382;47.168;16.008;2023-12-20T00:07:42;8.48;;;4.35;;
53497;SDS011;39382;47.168;16.008;2023-12-20T00:10:08;7.80;;;4.40;;
53497;SDS011;39382;47.168;16.008;2023-12-20T00:12:34;9.45;;;4.32;;
53497;SDS011;39382;47.168;16.008;2023-12-20T00:14:59;8.57;;;4.13;;
53497;SDS011;39382;47.168;16.008;2023-12-20T00:17:25;5.85;;;4.20;;
53497;SDS011;39382;47.168;16.008;2023-12-20T00:19:50;8.18;;;4.20;;
53497;SDS011;39382;47.168;16.008;2023-12-20T00:22:16;9.32;;;4.85;;
53497;SDS011;39382;47.168;16.008;2023-12-20T00:24:41;8.95;;;4.15;;
53497;SDS011;39382;47.168;16.008;2023-12-20T00:27:07;6.55;;;3.83;;
53497;SDS011;39382;47.168;16.008;2023-12-20T00:29:33;7.40;;;4.47;;
53497;SDS011;39382;47.168;16.008;2023-12-20T00:31:58;6.53;;;4.78;;
53497;SDS011;39382;47.168;16.008;2023-12-20T00:34:24;10.10;;;4.32;;
53497;SDS011;39382;47.168;16.008;2023-12-20T00:36:49;7.28;;;4.47;;
53497;SDS011;39382;47.168;16.008;2023-12-20T00:39:15;7.57;;;4.47;;
53497;SDS011;39382;47.168;16.008;2023-12-20T00:41:41;7.82;;;4.95;;
53497;SDS011;39382;47.168;16.008;2023-12-20T00:44:06;11.40;;;4.63;;
53497;SDS011;39382;47.168;16.008;2023-12-20T00:46:32;7.25;;;4.43;;
53497;SDS011;39382;47.168;16.008;2023-12-20T00:48:57;8.50;;;4.72;;
53497;SDS011;39382;47.168;16.008;2023-12-20T00:51:23;6.80;;;4.30;;
53497;SDS011;39382;47.168;16.008;2023-12-20T00:53:49;12.27;;;5.00;;
53497;SDS011;39382;47.168;16.008;2023-12-20T00:56:19;9.57;;;3.50;;
53497;SDS011;39382;47.168;16.008;2023-12-20T00:58:45;10.50;;;5.28;;
53497;SDS011;39382;47.168;16.008;2023-12-20T01:01:11;8.32;;;4.63;;
53497;SDS011;39382;47.168;16.008;2023-12-20T01:03:36;7.60;;;3.90;;
53497;SDS011;39382;47.168;16.008;2023-12-20T01:06:02;10.90;;;4.22;;
53497;SDS011;39382;47.168;16.008;2023-12-20T01:08:29;11.90;;;4.55;;
53497;SDS011;39382;47.168;16.008;2023-12-20T01:10:55;9.77;;;4.07;;
53497;SDS011;39382;47.168;16.008;2023-12-20T01:13:20;10.15;;;4.22;;
53497;SDS011;39382;47.168;16.008;2023-12-20T01:15:46;6.55;;;4.03;;
53497;SDS011;39382;47.168;16.008;2023-12-20T01:18:13;6.40;;;3.75;;
53497;SDS011;39382;47.168;16.008;2023-12-20T01:20:38;9.68;;;4.43;;
53497;SDS011;39382;47.168;16.008;2023-12-20T01:23:04;5.68;;;3.92;;
53497;SDS011;39382;47.168;16.008;2023-12-20T01:25:30;5.05;;;4.18;;
53497;SDS011;39382;47.168;16.008;2023-12-20T01:27:55;7.65;;;3.47;;
53497;SDS011;39382;47.168;16.008;2023-12-20T01:30:21;8.68;;;5.10;;
53497;SDS011;39382;47.168;16.008;2023-12-20T01:32:46;6.97;;;3.50;;
53497;SDS011;39382;47.168;16.008;2023-12-20T01:35:12;7.28;;;3.42;;
53497;SDS011;39382;47.168;16.008;2023-12-20T01:37:38;10.63;;;4.15;;
53497;SDS011;39382;47.168;16.008;2023-12-20T01:40:04;8.10;;;4.63;;
53497;SDS011;39382;47.168;16.008;2023-12-20T01:42:30;12.63;;;5.20;;
53497;SDS011;39382;47.168;16.008;2023-12-20T01:44:55;7.63;;;3.92;;
53497;SDS011;39382;47.168;16.008;2023-12-20T01:47:21;8.13;;;4.35;;
53497;SDS011;39382;47.168;16.008;2023-12-20T01:49:47;12.30;;;4.97;;
53497;SDS011;39382;47.168;16.008;2023-12-20T01:52:13;5.05;;;3.95;;
53497;SDS011;39382;47.168;16.008;2023-12-20T01:54:39;12.02;;;4.60;;
53497;SDS011;39382;47.168;16.008;2023-12-20T01:57:06;7.28;;;4.65;;
53497;SDS011;39382;47.168;16.008;2023-12-20T01:59:32;8.73;;;4.63;;
53497;SDS011;39382;47.168;16.008;2023-12-20T02:01:59;10.00;;;4.72;;
53497;SDS011;39382;47.168;16.008;2023-12-20T02:04:25;11.80;;;4.55;;
53497;SDS011;39382;47.168;16.008;2023-12-20T02:06:52;8.05;;;5.55;;
53497;SDS011;39382;47.168;16.008;2023-12-20T02:09:18;7.78;;;4.05;;
53497;SDS011;39382;47.168;16.008;2023-12-20T02:11:44;9.20;;;4.65;;
53497;SDS011;39382;47.168;16.008;2023-12-20T02:14:09;6.13;;;3.97;;
53497;SDS011;39382;47.168;16.008;2023-12-20T02:16:35;10.07;;;4.15;;
53497;SDS011;39382;47.168;16.008;2023-12-20T02:19:01;9.93;;;4.45;;
53497;SDS011;39382;47.168;16.008;2023-12-20T02:21:32;6.55;;;4.18;;
53497;SDS011;39382;47.168;16.008;2023-12-20T02:23:59;8.93;;;3.90;;
53497;SDS011;39382;47.168;16.008;2023-12-20T02:26:24;6.28;;;3.72;;
53497;SDS011;39382;47.168;16.008;2023-12-20T02:28:50;7.65;;;4.30;;
53497;SDS011;39382;47.168;16.008;2023-12-20T02:31:16;12.65;;;4.80;;
53497;SDS011;39382;47.168;16.008;2023-12-20T02:33:41;4.22;;;3.60;;
53497;SDS011;39382;47.168;16.008;2023-12-20T02:36:07;6.82;;;4.25;;
53497;SDS011;39382;47.168;16.008;2023-12-20T02:38:32;5.78;;;3.80;;
53497;SDS011;39382;47.168;16.008;2023-12-20T02:40:59;11.80;;;4.30;;
53497;SDS011;39382;47.168;16.008;2023-12-20T02:43:24;6.60;;;3.90;;
53497;SDS011;39382;47.168;16.008;2023-12-20T02:45:50;5.57;;;4.13;;
53497;SDS011;39382;47.168;16.008;2023-12-20T02:48:16;8.27;;;3.92;;
53497;SDS011;39382;47.168;16.008;2023-12-20T02:50:42;11.65;;;4.18;;
53497;SDS011;39382;47.168;16.008;2023-12-20T02:53:08;7.15;;;3.72;;
53497;SDS011;39382;47.168;16.008;2023-12-20T02:55:33;7.20;;;4.82;;
53497;SDS011;39382;47.168;16.008;2023-12-20T02:57:59;4.25;;;2.95;;
53497;SDS011;39382;47.168;16.008;2023-12-20T03:00:24;5.47;;;3.67;;
53497;SDS011;39382;47.168;16.008;2023-12-20T03:02:50;8.48;;;3.58;;
53497;SDS011;39382;47.168;16.008;2023-12-20T03:05:16;8.70;;;4.65;;
53497;SDS011;39382;47.168;16.008;2023-12-20T03:07:41;11.77;;;4.00;;
53497;SDS011;39382;47.168;16.008;2023-12-20T03:10:07;6.05;;;4.65;;
53497;SDS011;39382;47.168;16.008;2023-12-20T03:12:34;6.97;;;3.20;;
53497;SDS011;39382;47.168;16.008;2023-12-20T03:15:00;5.93;;;3.83;;
53497;SDS011;39382;47.168;16.008;2023-12-20T03:17:25;6.22;;;3.70;;
53497;SDS011;39382;47.168;16.008;2023-12-20T03:19:51;5.15;;;3.30;;
53497;SDS011;39382;47.168;16.008;2023-12-20T03:22:16;7.53;;;3.53;;
53497;SDS011;39382;47.168;16.008;2023-12-20T03:24:42;4.85;;;2.95;;
53497;SDS011;39382;47.168;16.008;2023-12-20T03:27:07;4.53;;;3.00;;
53497;SDS011;39382;47.168;16.008;2023-12-20T03:29:33;7.43;;;3.92;;
53497;SDS011;39382;47.168;16.008;2023-12-20T03:31:59;8.10;;;3.50;;
53497;SDS011;39382;47.168;16.008;2023-12-20T03:34:24;6.15;;;3.65;;
53497;SDS011;39382;47.168;16.008;2023-12-20T03:36:50;5.10;;;3.15;;
53497;SDS011;39382;47.168;16.008;2023-12-20T03:39:15;10.63;;;5.00;;
53497;SDS011;39382;47.168;16.008;2023-12-20T03:41:41;5.95;;;3.83;;
53497;SDS011;39382;47.168;16.008;2023-12-20T03:44:06;6.28;;;3.97;;
53497;SDS011;39382;47.168;16.008;2023-12-20T03:46:32;11.35;;;4.53;;
53497;SDS011;39382;47.168;16.008;2023-12-20T03:48:58;7.60;;;5.07;;
53497;SDS011;39382;47.168;16.008;2023-12-20T03:51:23;11.63;;;5.50;;
53497;SDS011;39382;47.168;16.008;2023-12-20T03:53:49;9.05;;;4.00;;
53497;SDS011;39382;47.168;16.008;2023-12-20T03:56:14;14.00;;;6.03;;
53497;SDS011;39382;47.168;16.008;2023-12-20T03:58:40;11.00;;;5.47;;
53497;SDS011;39382;47.168;16.008;2023-12-20T04:01:09;7.88;;;4.60;;
53497;SDS011;39382;47.168;16.008;2023-12-20T04:03:38;8.30;;;3.90;;
53497;SDS011;39382;47.168;16.008;2023-12-20T04:06:05;5.63;;;3.35;;
53497;SDS011;39382;47.168;16.008;2023-12-20T04:08:31;11.13;;;4.25;;
53497;SDS011;39382;47.168;16.008;2023-12-20T04:10:56;8.27;;;4.35;;
53497;SDS011;39382;47.168;16.008;2023-12-20T04:13:22;8.45;;;3.60;;
53497;SDS011;39382;47.168;16.008;2023-12-20T04:15:47;15.18;;;4.70;;
53497;SDS011;39382;47.168;16.008;2023-12-20T04:18:15;8.93;;;3.70;;
53497;SDS011;39382;47.168;16.008;2023-12-20T04:20:40;5.95;;;3.15;;
53497;SDS011;39382;47.168;16.008;2023-12-20T04:23:06;5.80;;;3.42;;
53497;SDS011;39382;47.168;16.008;2023-12-20T04:25:32;5.75;;;3.47;;
53497;SDS011;39382;47.168;16.008;2023-12-20T04:27:57;3.85;;;2.83;;
53497;SDS011;39382;47.168;16.008;2023-12-20T04:30:23;6.95;;;4.32;;
53497;SDS011;39382;47.168;16.008;2023-12-20T04:32:48;5.30;;;3.70;;
53497;SDS011;39382;47.168;16.008;2023-12-20T04:35:14;4.88;;;3.10;;
53497;SDS011;39382;47.168;16.008;2023-12-20T04:37:39;4.40;;;3.80;;
53497;SDS011;39382;47.168;16.008;2023-12-20T04:40:05;5.57;;;3.35;;
53497;SDS011;39382;47.168;16.008;2023-12-20T04:42:32;9.38;;;3.28;;
53497;SDS011;39382;47.168;16.008;2023-12-20T04:44:58;8.73;;;4.18;;
53497;SDS011;39382;47.168;16.008;2023-12-20T04:47:23;4.13;;;3.72;;
53497;SDS011;39382;47.168;16.008;2023-12-20T04:49:49;5.53;;;3.22;;
53497;SDS011;39382;47.168;16.008;2023-12-20T04:52:14;5.75;;;4.40;;
53497;SDS011;39382;47.168;16.008;2023-12-20T04:54:40;11.10;;;4.93;;
53497;SDS011;39382;47.168;16.008;2023-12-20T04:57:06;9.43;;;4.47;;
53497;SDS011;39382;47.168;16.008;2023-12-20T04:59:31;8.93;;;4.47;;
53497;SDS011;39382;47.168;16.008;2023-12-20T05:01:57;10.10;;;3.92;;
53497;SDS011;39382;47.168;16.008;2023-12-20T05:04:23;9.32;;;5.30;;
53497;SDS011;39382;47.168;16.008;2023-12-20T05:06:49;6.25;;;4.20;;
53497;SDS011;39382;47.168;16.008;2023-12-20T05:09:15;7.72;;;4.53;;
53497;SDS011;39382;47.168;16.008;2023-12-20T05:11:41;13.15;;;7.13;;
53497;SDS011;39382;47.168;16.008;2023-12-20T05:14:06;10.88;;;7.15;;
53497;SDS011;39382;47.168;16.008;2023-12-20T05:16:32;9.07;;;5.40;;
53497;SDS011;39382;47.168;16.008;2023-12-20T05:18:58;8.75;;;4.22;;
53497;SDS011;39382;47.168;16.008;2023-12-20T05:21:25;8.52;;;5.50;;
53497;SDS011;39382;47.168;16.008;2023-12-20T05:23:51;10.15;;;5.30;;
53497;SDS011;39382;47.168;16.008;2023-12-20T05:26:17;15.40;;;5.20;;
53497;SDS011;39382;47.168;16.008;2023-12-20T05:28:43;10.95;;;4.43;;
53497;SDS011;39382;47.168;16.008;2023-12-20T05:31:09;7.95;;;4.22;;
53497;SDS011;39382;47.168;16.008;2023-12-20T05:33:34;6.45;;;3.85;;
53497;SDS011;39382;47.168;16.008;2023-12-20T05:36:00;7.40;;;4.20;;
53497;SDS011;39382;47.168;16.008;2023-12-20T05:38:25;6.68;;;3.53;;
53497;SDS011;39382;47.168;16.008;2023-12-20T05:40:51;8.40;;;3.58;;
53497;SDS011;39382;47.168;16.008;2023-12-20T05:43:17;6.30;;;4.15;;
53497;SDS011;39382;47.168;16.008;2023-12-20T05:45:42;7.53;;;4.05;;
53497;SDS011;39382;47.168;16.008;2023-12-20T05:48:08;7.68;;;3.80;;
53497;SDS011;39382;47.168;16.008;2023-12-20T05:50:33;9.45;;;4.30;;
53497;SDS011;39382;47.168;16.008;2023-12-20T05:53:00;8.18;;;4.63;;
53497;SDS011;39382;47.168;16.008;2023-12-20T05:55:25;6.72;;;4.40;;
53497;SDS011;39382;47.168;16.008;2023-12-20T05:57:51;10.57;;;5.07;;
53497;SDS011;39382;47.168;16.008;2023-12-20T06:00:17;6.50;;;4.68;;
53497;SDS011;39382;47.168;16.008;2023-12-20T06:02:43;10.95;;;5.05;;
53497;SDS011;39382;47.168;16.008;2023-12-20T06:05:09;5.50;;;3.60;;
53497;SDS011;39382;47.168;16.008;2023-12-20T06:07:34;8.55;;;4.90;;
53497;SDS011;39382;47.168;16.008;2023-12-20T06:10:00;11.75;;;5.57;;
53497;SDS011;39382;47.168;16.008;2023-12-20T06:12:26;12.82;;;5.13;;
53497;SDS011;39382;47.168;16.008;2023-12-20T06:14:53;7.00;;;4.25;;
53497;SDS011;39382;47.168;16.008;2023-12-20T06:17:19;7.45;;;5.00;;
53497;SDS011;39382;47.168;16.008;2023-12-20T06:19:45;7.70;;;4.25;;
53497;SDS011;39382;47.168;16.008;2023-12-20T06:22:13;7.47;;;3.92;;
53497;SDS011;39382;47.168;16.008;2023-12-20T06:24:39;12.93;;;4.70;;
53497;SDS011;39382;47.168;16.008;2023-12-20T06:27:05;7.13;;;3.97;;
53497;SDS011;39382;47.168;16.008;2023-12-20T06:29:30;6.95;;;4.55;;
53497;SDS011;39382;47.168;16.008;2023-12-20T06:31:56;5.97;;;3.78;;
53497;SDS011;39382;47.168;16.008;2023-12-20T06:34:22;5.78;;;3.40;;
53497;SDS011;39382;47.168;16.008;2023-12-20T06:36:48;6.25;;;3.85;;
53497;SDS011;39382;47.168;16.008;2023-12-20T06:39:13;7.97;;;4.68;;
53497;SDS011;39382;47.168;16.008;2023-12-20T06:41:39;11.05;;;4.05;;
53497;SDS011;39382;47.168;16.008;2023-12-20T06:44:05;6.90;;;4.72;;
53497;SDS011;39382;47.168;16.008;2023-12-20T06:46:31;9.48;;;5.53;;
53497;SDS011;39382;47.168;16.008;2023-12-20T06:48:57;9.82;;;5.00;;
53497;SDS011;39382;47.168;16.008;2023-12-20T06:51:22;11.45;;;5.28;;
53497;SDS011;39382;47.168;16.008;2023-12-20T06:53:51;7.38;;;4.57;;
53497;SDS011;39382;47.168;16.008;2023-12-20T06:56:17;8.48;;;4.88;;
53497;SDS011;39382;47.168;16.008;2023-12-20T06:58:43;13.98;;;4.53;;
53497;SDS011;39382;47.168;16.008;2023-12-20T07:01:12;9.57;;;5.20;;
53497;SDS011;39382;47.168;16.008;2023-12-20T07:03:38;7.63;;;4.80;;
53497;SDS011;39382;47.168;16.008;2023-12-20T07:06:04;7.80;;;4.57;;
53497;SDS011;39382;47.168;16.008;2023-12-20T07:08:30;10.98;;;4.45;;
53497;SDS011;39382;47.168;16.008;2023-12-20T07:10:56;10.25;;;5.35;;
53497;SDS011;39382;47.168;16.008;2023-12-20T07:13:21;14.07;;;6.10;;
53497;SDS011;39382;47.168;16.008;2023-12-20T07:15:47;17.00;;;8.93;;
53497;SDS011;39382;47.168;16.008;2023-12-20T07:18:13;12.73;;;7.00;;
53497;SDS011;39382;47.168;16.008;2023-12-20T07:20:39;20.33;;;8.93;;
53497;SDS011;39382;47.168;16.008;2023-12-20T07:23:05;18.33;;;8.25;;
53497;SDS011;39382;47.168;16.008;2023-12-20T07:25:30;14.18;;;7.88;;
53497;SDS011;39382;47.168;16.008;2023-12-20T07:27:57;16.58;;;7.47;;
53497;SDS011;39382;47.168;16.008;2023-12-20T07:30:23;13.13;;;8.10;;
53497;SDS011;39382;47.168;16.008;2023-12-20T07:32:49;14.88;;;7.30;;
53497;SDS011;39382;47.168;16.008;2023-12-20T07:35:15;14.35;;;8.70;;
53497;SDS011;39382;47.168;16.008;2023-12-20T07:37:41;18.75;;;8.30;;
53497;SDS011;39382;47.168;16.008;2023-12-20T07:40:07;11.77;;;6.82;;
53497;SDS011;39382;47.168;16.008;2023-12-20T07:42:33;9.93;;;5.07;;
53497;SDS011;39382;47.168;16.008;2023-12-20T07:44:59;10.32;;;4.80;;
53497;SDS011;39382;47.168;16.008;2023-12-20T07:47:24;10.05;;;6.47;;
53497;SDS011;39382;47.168;16.008;2023-12-20T07:49:50;10.35;;;6.35;;
53497;SDS011;39382;47.168;16.008;2023-12-20T07:52:17;19.17;;;7.38;;
53497;SDS011;39382;47.168;16.008;2023-12-20T07:54:43;11.10;;;6.03;;
53497;SDS011;39382;47.168;16.008;2023-12-20T07:57:10;11.68;;;6.07;;
53497;SDS011;39382;47.168;16.008;2023-12-20T07:59:36;8.50;;;5.38;;
53497;SDS011;39382;47.168;16.008;2023-12-20T08:02:01;12.25;;;5.35;;
53497;SDS011;39382;47.168;16.008;2023-12-20T08:04:27;6.25;;;4.65;;
53497;SDS011;39382;47.168;16.008;2023-12-20T08:06:53;8.77;;;4.13;;
53497;SDS011;39382;47.168;16.008;2023-12-20T08:09:18;8.88;;;5.10;;
53497;SDS011;39382;47.168;16.008;2023-12-20T08:11:47;8.10;;;4.65;;
53497;SDS011;39382;47.168;16.008;2023-12-20T08:14:14;9.70;;;4.70;;
53497;SDS011;39382;47.168;16.008;2023-12-20T08:16:40;14.02;;;6.80;;
53497;SDS011;39382;47.168;16.008;2023-12-20T08:19:05;8.50;;;5.88;;
53497;SDS011;39382;47.168;16.008;2023-12-20T08:21:31;8.85;;;6.20;;
53497;SDS011;39382;47.168;16.008;2023-12-20T08:23:56;14.10;;;5.90;;
53497;SDS011;39382;47.168;16.008;2023-12-20T08:26:22;9.40;;;5.82;;
53497;SDS011;39382;47.168;16.008;2023-12-20T08:28:49;11.63;;;6.82;;
53497;SDS011;39382;47.168;16.008;2023-12-20T08:31:15;12.40;;;7.75;;
53497;SDS011;39382;47.168;16.008;2023-12-20T08:33:45;11.25;;;7.30;;
53497;SDS011;39382;47.168;16.008;2023-12-20T08:36:12;17.65;;;6.75;;
53497;SDS011;39382;47.168;16.008;2023-12-20T08:38:38;13.55;;;6.28;;
53497;SDS011;39382;47.168;16.008;2023-12-20T08:41:04;16.30;;;5.82;;
53497;SDS011;39382;47.168;16.008;2023-12-20T08:43:31;8.00;;;5.40;;
53497;SDS011;39382;47.168;16.008;2023-12-20T08:45:57;9.60;;;6.07;;
53497;SDS011;39382;47.168;16.008;2023-12-20T08:48:22;9.45;;;5.68;;
53497;SDS011;39382;47.168;16.008;2023-12-20T08:50:48;10.18;;;5.50;;
53497;SDS011;39382;47.168;16.008;2023-12-20T08:53:15;10.52;;;5.72;;
53497;SDS011;39382;47.168;16.008;2023-12-20T08:55:42;9.00;;;4.90;;
53497;SDS011;39382;47.168;16.008;2023-12-20T08:58:07;9.70;;;5.55;;
53497;SDS011;39382;47.168;16.008;2023-12-20T09:00:33;8.15;;;5.13;;
53497;SDS011;39382;47.168;16.008;2023-12-20T09:02:59;19.25;;;7.45;;
53497;SDS011;39382;47.168;16.008;2023-12-20T09:05:26;14.07;;;7.30;;
53497;SDS011;39382;47.168;16.008;2023-12-20T09:07:52;9.63;;;5.80;;
53497;SDS011;39382;47.168;16.008;2023-12-20T09:10:17;11.68;;;6.40;;
53497;SDS011;39382;47.168;16.008;2023-12-20T09:12:53;21.63;;;9.80;;
53497;SDS011;39382;47.168;16.008;2023-12-20T09:15:21;23.73;;;11.07;;
53497;SDS011;39382;47.168;16.008;2023-12-20T09:17:50;8.52;;;6.75;;
53497;SDS011;39382;47.168;16.008;2023-12-20T09:20:16;10.65;;;5.63;;
53497;SDS011;39382;47.168;16.008;2023-12-20T09:22:42;9.05;;;5.70;;
53497;SDS011;39382;47.168;16.008;2023-12-20T09:25:09;14.43;;;6.15;;
53497;SDS011;39382;47.168;16.008;2023-12-20T09:27:35;8.77;;;4.90;;
53497;SDS011;39382;47.168;16.008;2023-12-20T09:30:01;11.25;;;5.20;;
53497;SDS011;39382;47.168;16.008;2023-12-20T09:32:26;9.27;;;5.30;;
53497;SDS011;39382;47.168;16.008;2023-12-20T09:34:52;7.70;;;5.88;;
53497;SDS011;39382;47.168;16.008;2023-12-20T09:37:17;12.10;;;6.75;;
53497;SDS011;39382;47.168;16.008;2023-12-20T09:39:43;8.98;;;6.65;;
53497;SDS011;39382;47.168;16.008;2023-12-20T09:42:08;13.80;;;9.98;;
53497;SDS011;39382;47.168;16.008;2023-12-20T09:44:37;14.40;;;9.60;;
53497;SDS011;39382;47.168;16.008;2023-12-20T09:47:05;14.38;;;7.43;;
53497;SDS011;39382;47.168;16.008;2023-12-20T09:49:32;9.88;;;6.18;;
53497;SDS011;39382;47.168;16.008;2023-12-20T09:51:58;10.15;;;6.03;;
53497;SDS011;39382;47.168;16.008;2023-12-20T09:54:26;9.95;;;6.07;;
53497;SDS011;39382;47.168;16.008;2023-12-20T09:56:53;9.77;;;5.65;;
53497;SDS011;39382;47.168;16.008;2023-12-20T09:59:19;20.52;;;7.20;;
53497;SDS011;39382;47.168;16.008;2023-12-20T10:01:45;15.45;;;7.05;;
53497;SDS011;39382;47.168;16.008;2023-12-20T10:04:12;14.45;;;7.65;;
53497;SDS011;39382;47.168;16.008;2023-12-20T10:06:42;12.38;;;7.95;;
53497;SDS011;39382;47.168;16.008;2023-12-20T10:09:08;12.45;;;7.53;;
53497;SDS011;39382;47.168;16.008;2023-12-20T10:11:38;14.18;;;8.23;;
53497;SDS011;39382;47.168;16.008;2023-12-20T10:14:05;9.77;;;5.80;;
53497;SDS011;39382;47.168;16.008;2023-12-20T10:16:31;10.80;;;5.80;;
53497;SDS011;39382;47.168;16.008;2023-12-20T10:18:58;24.90;;;13.98;;
53497;SDS011;39382;47.168;16.008;2023-12-20T10:21:24;13.68;;;7.15;;
53497;SDS011;39382;47.168;16.008;2023-12-20T10:23:54;14.40;;;6.47;;
53497;SDS011;39382;47.168;16.008;2023-12-20T10:26:24;14.82;;;9.27;;
53497;SDS011;39382;47.168;16.008;2023-12-20T10:28:51;12.18;;;9.00;;
53497;SDS011;39382;47.168;16.008;2023-12-20T10:31:32;18.27;;;10.52;;
53497;SDS011;39382;47.168;16.008;2023-12-20T10:34:00;9.93;;;7.25;;
53497;SDS011;39382;47.168;16.008;2023-12-20T10:36:27;18.55;;;8.50;;
53497;SDS011;39382;47.168;16.008;2023-12-20T10:38:54;9.68;;;5.32;;
53497;SDS011;39382;47.168;16.008;2023-12-20T10:43:53;8.68;;;5.60;;
53497;SDS011;39382;47.168;16.008;2023-12-20T10:46:26;9.30;;;5.35;;
53497;SDS011;39382;47.168;16.008;2023-12-20T10:48:56;10.98;;;6.25;;
53497;SDS011;39382;47.168;16.008;2023-12-20T10:51:22;8.70;;;5.38;;
53497;SDS011;39382;47.168;16.008;2023-12-20T10:53:51;7.60;;;5.22;;
53497;SDS011;39382;47.168;16.008;2023-12-20T10:56:18;8.00;;;4.93;;
53497;SDS011;39382;47.168;16.008;2023-12-20T10:58:45;10.30;;;6.03;;
53497;SDS011;39382;47.168;16.008;2023-12-20T11:01:16;19.00;;;9.73;;
53497;SDS011;39382;47.168;16.008;2023-12-20T11:03:52;16.35;;;7.38;;
53497;SDS011;39382;47.168;16.008;2023-12-20T11:08:50;21.88;;;5.63;;
53497;SDS011;39382;47.168;16.008;2023-12-20T11:11:35;12.30;;;6.22;;
53497;SDS011;39382;47.168;16.008;2023-12-20T11:14:16;10.95;;;6.32;;
53497;SDS011;39382;47.168;16.008;2023-12-20T11:16:47;10.82;;;5.40;;
53497;SDS011;39382;47.168;16.008;2023-12-20T11:19:13;12.18;;;6.45;;
53497;SDS011;39382;47.168;16.008;2023-12-20T11:21:39;15.02;;;7.70;;
53497;SDS011;39382;47.168;16.008;2023-12-20T11:24:05;14.95;;;7.63;;
53497;SDS011;39382;47.168;16.008;2023-12-20T11:26:31;12.82;;;7.43;;
53497;SDS011;39382;47.168;16.008;2023-12-20T11:31:54;8.02;;;5.55;;
53497;SDS011;39382;47.168;16.008;2023-12-20T11:34:20;10.95;;;6.40;;
53497;SDS011;39382;47.168;16.008;2023-12-20T11:36:45;10.27;;;6.38;;
53497;SDS011;39382;47.168;16.008;2023-12-20T11:39:11;10.45;;;6.28;;
53497;SDS011;39382;47.168;16.008;2023-12-20T11:41:44;9.63;;;6.05;;
53497;SDS011;39382;47.168;16.008;2023-12-20T11:44:10;10.27;;;5.85;;
53497;SDS011;39382;47.168;16.008;2023-12-20T11:46:36;9.65;;;5.85;;
53497;SDS011;39382;47.168;16.008;2023-12-20T11:49:02;12.02;;;6.18;;
53497;SDS011;39382;47.168;16.008;2023-12-20T11:51:28;25.17;;;11.52;;
53497;SDS011;39382;47.168;16.008;2023-12-20T11:53:53;26.73;;;14.23;;
53497;SDS011;39382;47.168;16.008;2023-12-20T11:56:19;22.65;;;10.52;;
53497;SDS011;39382;47.168;16.008;2023-12-20T11:58:45;14.23;;;8.07;;
53497;SDS011;39382;47.168;16.008;2023-12-20T12:01:10;16.63;;;8.88;;
53497;SDS011;39382;47.168;16.008;2023-12-20T12:03:36;11.45;;;7.03;;
53497;SDS011;39382;47.168;16.008;2023-12-20T12:06:02;13.32;;;7.07;;
53497;SDS011;39382;47.168;16.008;2023-12-20T12:08:29;13.98;;;7.47;;
53497;SDS011;39382;47.168;16.008;2023-12-20T12:10:55;20.65;;;12.00;;
53497;SDS011;39382;47.168;16.008;2023-12-20T12:13:21;19.42;;;9.70;;
53497;SDS011;39382;47.168;16.008;2023-12-20T12:15:47;18.85;;;12.45;;
53497;SDS011;39382;47.168;16.008;2023-12-20T12:18:16;15.05;;;9.35;;
53497;SDS011;39382;47.168;16.008;2023-12-20T12:20:43;20.50;;;9.77;;
53497;SDS011;39382;47.168;16.008;2023-12-20T12:23:08;16.17;;;8.88;;
53497;SDS011;39382;47.168;16.008;2023-12-20T12:25:37;10.88;;;6.20;;
53497;SDS011;39382;47.168;16.008;2023-12-20T12:28:03;12.35;;;6.53;;
53497;SDS011;39382;47.168;16.008;2023-12-20T12:30:29;6.80;;;5.53;;
53497;SDS011;39382;47.168;16.008;2023-12-20T12:32:55;8.55;;;5.70;;
53497;SDS011;39382;47.168;16.008;2023-12-20T12:35:21;10.55;;;6.78;;
53497;SDS011;39382;47.168;16.008;2023-12-20T12:37:47;12.55;;;6.97;;
53497;SDS011;39382;47.168;16.008;2023-12-20T12:40:14;12.55;;;8.13;;
53497;SDS011;39382;47.168;16.008;2023-12-20T12:42:41;12.27;;;6.68;;
53497;SDS011;39382;47.168;16.008;2023-12-20T12:45:09;9.10;;;6.20;;
53497;SDS011;39382;47.168;16.008;2023-12-20T12:47:36;10.95;;;5.85;;
53497;SDS011;39382;47.168;16.008;2023-12-20T12:50:02;9.05;;;5.85;;
53497;SDS011;39382;47.168;16.008;2023-12-20T12:52:28;12.13;;;5.78;;
53497;SDS011;39382;47.168;16.008;2023-12-20T12:54:55;9.27;;;5.60;;
53497;SDS011;39382;47.168;16.008;2023-12-20T12:57:20;12.48;;;7.22;;
53497;SDS011;39382;47.168;16.008;2023-12-20T12:59:46;10.35;;;5.50;;
53497;SDS011;39382;47.168;16.008;2023-12-20T13:02:12;7.47;;;5.28;;
53497;SDS011;39382;47.168;16.008;2023-12-20T13:04:38;8.57;;;5.15;;
53497;SDS011;39382;47.168;16.008;2023-12-20T13:07:04;10.18;;;5.57;;
53497;SDS011;39382;47.168;16.008;2023-12-20T13:09:30;13.50;;;6.45;;
53497;SDS011;39382;47.168;16.008;2023-12-20T13:11:56;9.73;;;5.65;;
53497;SDS011;39382;47.168;16.008;2023-12-20T13:14:22;10.52;;;6.15;;
53497;SDS011;39382;47.168;16.008;2023-12-20T13:16:48;12.07;;;6.85;;
53497;SDS011;39382;47.168;16.008;2023-12-20T13:19:13;11.63;;;6.78;;
53497;SDS011;39382;47.168;16.008;2023-12-20T13:21:39;16.05;;;9.05;;
53497;SDS011;39382;47.168;16.008;2023-12-20T13:24:05;16.20;;;7.97;;
53497;SDS011;39382;47.168;16.008;2023-12-20T13:26:31;13.52;;;7.78;;
53497;SDS011;39382;47.168;16.008;2023-12-20T13:28:58;13.95;;;7.43;;
53497;SDS011;39382;47.168;16.008;2023-12-20T13:31:24;17.10;;;9.02;;
53497;SDS011;39382;47.168;16.008;2023-12-20T13:33:49;10.65;;;6.40;;
53497;SDS011;39382;47.168;16.008;2023-12-20T13:36:17;8.02;;;6.00;;
53497;SDS011;39382;47.168;16.008;2023-12-20T13:38:44;16.10;;;7.68;;
53497;SDS011;39382;47.168;16.008;2023-12-20T13:41:10;9.25;;;5.78;;
53497;SDS011;39382;47.168;16.008;2023-12-20T13:43:35;9.50;;;5.80;;
53497;SDS011;39382;47.168;16.008;2023-12-20T13:46:01;14.73;;;7.65;;
53497;SDS011;39382;47.168;16.008;2023-12-20T13:48:26;12.23;;;6.43;;
53497;SDS011;39382;47.168;16.008;2023-12-20T13:50:52;10.48;;;6.47;;
53497;SDS011;39382;47.168;16.008;2023-12-20T13:53:19;9.05;;;6.60;;
53497;SDS011;39382;47.168;16.008;2023-12-20T13:55:45;14.13;;;6.40;;
53497;SDS011;39382;47.168;16.008;2023-12-20T13:58:11;10.65;;;6.15;;
53497;SDS011;39382;47.168;16.008;2023-12-20T14:00:37;10.10;;;5.90;;
53497;SDS011;39382;47.168;16.008;2023-12-20T14:03:05;11.45;;;6.85;;
53497;SDS011;39382;47.168;16.008;2023-12-20T14:05:31;14.75;;;6.47;;
53497;SDS011;39382;47.168;16.008;2023-12-20T14:07:56;8.68;;;6.55;;
53497;SDS011;39382;47.168;16.008;2023-12-20T14:10:23;9.00;;;5.68;;
53497;SDS011;39382;47.168;16.008;2023-12-20T14:12:51;9.02;;;4.90;;
53497;SDS011;39382;47.168;16.008;2023-12-20T14:15:17;16.95;;;7.03;;
53497;SDS011;39382;47.168;16.008;2023-12-20T14:17:43;11.98;;;7.32;;
53497;SDS011;39382;47.168;16.008;2023-12-20T14:20:09;12.38;;;7.90;;
53497;SDS011;39382;47.168;16.008;2023-12-20T14:22:37;15.40;;;9.52;;
53497;SDS011;39382;47.168;16.008;2023-12-20T14:25:03;14.38;;;8.35;;
53497;SDS011;39382;47.168;16.008;2023-12-20T14:27:29;13.07;;;8.10;;
53497;SDS011;39382;47.168;16.008;2023-12-20T14:29:55;17.58;;;8.30;;